Time;durP1;ratioP1;P1;durP2;ratioP2;P2;SDS_P1;SDS_P2;PMS_P1;PMS_P2;Temp;Humidity;BMP_temperature;BMP_pressure;BME280_temperature;BME280_humidity;BME280_pressure;Samples;Min_cycle;Max_cycle;Signal;HPM_P1;HPM_P2
2022/10/22 00:01:35;;;;;;;14.20;12.17;;;20.00;75.00;;;;;;4983183;28;43487;-76
2022/10/22 00:04:03;;;;;;;14.83;13.17;;;20.00;75.20;;;;;;4984088;28;43903;-77
2022/10/22 00:06:32;;;;;;;13.40;12.00;;;20.00;75.20;;;;;;4982105;28;44051;-77
2022/10/22 00:09:00;;;;;;;12.87;11.53;;;20.00;75.20;;;;;;4982100;28;43552;-77
2022/10/22 00:11:28;;;;;;;13.63;12.23;;;19.90;75.20;;;;;;4980563;28;43433;-77
2022/10/22 00:13:57;;;;;;;13.70;12.30;;;19.90;75.50;;;;;;4980946;28;44041;-77
2022/10/22 00:16:25;;;;;;;13.30;11.40;;;19.90;75.80;;;;;;4982033;28;43922;-75
2022/10/22 00:18:53;;;;;;;13.33;11.97;;;19.90;75.60;;;;;;4981304;28;43502;-79
2022/10/22 00:21:21;;;;;;;13.07;11.77;;;19.90;75.50;;;;;;4982373;28;43832;-79
2022/10/22 00:23:51;;;;;;;12.57;11.37;;;19.80;75.50;;;;;;4999763;28;45682;-79
2022/10/22 00:26:19;;;;;;;13.07;11.87;;;19.80;75.60;;;;;;4981878;28;43491;-80
2022/10/22 00:28:47;;;;;;;13.37;11.67;;;19.80;76.00;;;;;;4982069;28;43468;-79
2022/10/22 00:31:15;;;;;;;12.73;11.43;;;19.90;75.90;;;;;;4981175;28;43427;-78
2022/10/22 00:33:43;;;;;;;13.03;11.67;;;20.00;75.30;;;;;;4982171;28;43908;-79
2022/10/22 00:36:11;;;;;;;12.43;11.13;;;20.20;74.80;;;;;;4984671;28;44206;-79
2022/10/22 00:38:39;;;;;;;12.10;10.90;;;20.40;74.30;;;;;;4997098;28;43490;-78
2022/10/22 00:41:08;;;;;;;12.80;11.50;;;20.40;74.10;;;;;;4984585;28;43422;-76
2022/10/22 00:43:58;;;;;;;11.90;10.70;;;20.40;74.10;;;;;;4981239;28;43818;-79
2022/10/22 00:46:26;;;;;;;11.57;10.47;;;20.20;74.10;;;;;;4982440;28;43522;-78
2022/10/22 00:48:55;;;;;;;13.33;11.77;;;20.10;74.40;;;;;;4984659;28;44115;-78
2022/10/22 00:51:23;;;;;;;12.37;11.07;;;20.00;74.90;;;;;;4981145;28;43521;-78
2022/10/22 00:53:54;;;;;;;12.00;10.90;;;20.10;75.20;;;;;;4983875;28;43916;-78
2022/10/22 00:56:24;;;;;;;11.60;10.40;;;20.00;75.00;;;;;;4980820;28;43431;-77
2022/10/22 00:58:53;;;;;;;11.20;10.13;;;20.00;75.10;;;;;;4982191;28;44155;-79
2022/10/22 01:01:23;;;;;;;11.97;10.67;;;19.90;75.10;;;;;;4984879;28;43449;-76
2022/10/22 01:03:52;;;;;;;12.20;10.97;;;19.90;75.60;;;;;;4997187;28;45719;-76
2022/10/22 01:06:23;;;;;;;11.60;10.50;;;19.90;75.70;;;;;;4981510;28;43880;-77
2022/10/22 01:08:56;;;;;;;11.60;10.50;;;19.90;76.30;;;;;;4978918;28;43479;-77
2022/10/22 01:11:27;;;;;;;11.07;10.00;;;19.80;75.40;;;;;;4978878;28;43939;-77
2022/10/22 01:13:57;;;;;;;11.63;10.40;;;19.80;75.40;;;;;;4982498;28;43850;-77
2022/10/22 01:16:30;;;;;;;11.80;10.70;;;19.80;75.80;;;;;;4984097;28;44491;-76
2022/10/22 01:19:00;;;;;;;11.73;10.63;;;19.80;75.90;;;;;;4980640;28;43428;-78
2022/10/22 01:21:31;;;;;;;10.70;9.70;;;19.80;75.70;;;;;;4979884;28;43655;-77
2022/10/22 01:24:35;;;;;;;10.33;9.53;;;19.80;75.60;;;;;;4981117;28;44173;-77
2022/10/22 01:27:10;;;;;;;10.80;9.90;;;19.80;75.60;;;;;;4937862;28;43500;-77
2022/10/22 01:29:42;;;;;;;10.97;10.07;;;19.80;75.90;;;;;;4975760;28;43791;-78
2022/10/22 01:32:11;;;;;;;11.13;10.13;;;19.80;76.10;;;;;;4983876;28;43473;-77
2022/10/22 01:34:40;;;;;;;11.67;10.57;;;19.90;75.80;;;;;;4978158;28;43670;-77
2022/10/22 01:37:08;;;;;;;11.33;10.33;;;20.10;75.30;;;;;;4980854;28;43533;-77
2022/10/22 01:39:36;;;;;;;11.33;10.23;;;20.20;74.60;;;;;;4986984;28;43424;-77
2022/10/22 01:42:04;;;;;;;11.07;9.97;;;20.30;74.20;;;;;;4979167;28;43471;-77
2022/10/22 01:44:33;;;;;;;10.43;9.40;;;20.30;74.00;;;;;;4978417;28;43830;-76
2022/10/22 01:47:14;;;;;;;10.97;9.93;;;20.30;74.10;;;;;;4981586;28;43921;-76
2022/10/22 01:49:59;;;;;;;10.53;9.63;;;20.20;74.20;;;;;;4993685;28;43934;-77
2022/10/22 01:52:29;;;;;;;11.23;10.10;;;20.10;74.50;;;;;;4994213;28;43528;-78
2022/10/22 01:55:02;;;;;;;10.00;9.10;;;20.00;75.00;;;;;;4981092;28;45737;-79
2022/10/22 01:57:33;;;;;;;9.87;9.07;;;20.00;75.00;;;;;;4988886;28;44849;-77
2022/10/22 02:00:02;;;;;;;9.93;9.13;;;20.00;75.00;;;;;;4983143;28;43424;-76
2022/10/22 02:02:35;;;;;;;9.90;9.00;;;20.00;75.10;;;;;;4974980;28;43459;-77
2022/10/22 02:05:05;;;;;;;9.70;8.90;;;19.90;75.30;;;;;;4979558;28;43609;-77
2022/10/22 02:07:35;;;;;;;9.90;9.10;;;19.80;75.60;;;;;;4985014;28;43443;-78
2022/10/22 02:10:06;;;;;;;9.87;9.00;;;19.90;75.60;;;;;;4985505;28;43380;-76
2022/10/22 02:12:34;;;;;;;9.87;8.93;;;19.90;75.40;;;;;;4986642;28;43693;-77
2022/10/22 02:15:02;;;;;;;8.70;8.10;;;19.90;75.40;;;;;;4983462;28;43936;-77
2022/10/22 02:17:33;;;;;;;9.33;8.47;;;19.80;75.40;;;;;;4984171;28;43463;-78
2022/10/22 02:20:01;;;;;;;9.47;8.77;;;19.80;75.90;;;;;;4999663;28;43495;-78
2022/10/22 02:22:29;;;;;;;9.20;8.40;;;19.80;75.90;;;;;;4982114;28;43418;-78
2022/10/22 02:24:59;;;;;;;9.27;8.47;;;20.00;75.60;;;;;;4982535;28;43651;-77
2022/10/22 02:27:29;;;;;;;9.10;8.40;;;20.10;75.00;;;;;;4985914;28;43457;-77
2022/10/22 02:30:00;;;;;;;8.57;7.83;;;20.30;74.50;;;;;;4980177;28;43437;-77
2022/10/22 02:32:30;;;;;;;8.63;7.93;;;20.30;74.00;;;;;;4983923;28;43558;-77
2022/10/22 02:35:00;;;;;;;9.30;8.40;;;20.30;74.00;;;;;;4985980;28;43615;-77
2022/10/22 02:37:28;;;;;;;8.73;8.03;;;20.30;74.10;;;;;;4976745;28;44714;-78
2022/10/22 02:39:56;;;;;;;8.97;8.17;;;20.20;74.30;;;;;;4978420;28;43409;-78
2022/10/22 02:42:24;;;;;;;8.70;8.10;;;20.10;74.80;;;;;;4984875;28;43447;-78
2022/10/22 02:44:52;;;;;;;8.27;7.67;;;20.10;75.00;;;;;;4984602;28;44097;-78
2022/10/22 02:47:21;;;;;;;8.43;7.83;;;20.10;75.00;;;;;;4988649;28;44687;-77
2022/10/22 02:49:49;;;;;;;8.03;7.43;;;20.00;75.00;;;;;;4983867;28;43771;-77
2022/10/22 02:52:18;;;;;;;8.73;8.03;;;20.00;75.10;;;;;;4986122;28;43567;-78
2022/10/22 02:54:46;;;;;;;8.33;7.63;;;19.90;75.30;;;;;;4998158;28;46027;-78
2022/10/22 02:57:14;;;;;;;8.97;8.20;;;19.90;75.70;;;;;;4982307;28;43529;-78
2022/10/22 02:59:42;;;;;;;7.77;7.20;;;19.90;75.60;;;;;;4975305;28;43507;-78
2022/10/22 03:02:10;;;;;;;7.60;7.00;;;19.90;75.40;;;;;;4983890;28;43485;-79
2022/10/22 03:04:38;;;;;;;7.80;7.20;;;19.90;75.40;;;;;;4983019;28;43957;-78
2022/10/22 03:07:06;;;;;;;7.57;7.07;;;19.80;75.50;;;;;;4984549;28;43895;-79
2022/10/22 03:09:35;;;;;;;8.20;7.60;;;19.80;75.90;;;;;;4985753;28;43430;-79
2022/10/22 03:12:03;;;;;;;7.80;7.20;;;19.80;75.90;;;;;;5001023;28;43520;-76
2022/10/22 03:14:31;;;;;;;7.93;7.33;;;19.90;75.50;;;;;;4985060;28;44788;-79
2022/10/22 03:16:59;;;;;;;8.23;7.63;;;20.10;75.00;;;;;;4982811;28;43512;-78
2022/10/22 03:19:27;;;;;;;7.87;7.27;;;20.20;74.50;;;;;;4984250;28;44249;-79
2022/10/22 03:21:56;;;;;;;7.60;7.10;;;20.30;74.30;;;;;;4982846;28;43528;-80
2022/10/22 03:24:25;;;;;;;6.77;6.37;;;20.20;74.20;;;;;;4983780;28;43958;-77
2022/10/22 03:26:55;;;;;;;6.83;6.40;;;20.20;74.40;;;;;;4985646;28;43484;-77
2022/10/22 03:29:23;;;;;;;7.60;7.00;;;20.10;74.60;;;;;;4985260;28;43460;-79
2022/10/22 03:31:52;;;;;;;7.30;6.80;;;20.00;75.90;;;;;;4985063;28;43460;-79
2022/10/22 03:34:20;;;;;;;7.47;6.97;;;20.00;75.30;;;;;;4997514;28;45711;-78
2022/10/22 03:36:48;;;;;;;6.90;6.50;;;20.00;75.30;;;;;;4976618;28;44543;-78
2022/10/22 03:39:16;;;;;;;6.80;6.40;;;19.90;75.10;;;;;;4985184;28;43417;-78
2022/10/22 03:41:44;;;;;;;6.80;6.30;;;19.90;75.30;;;;;;4997960;28;43641;-79
2022/10/22 03:44:14;;;;;;;6.80;6.40;;;19.80;75.60;;;;;;4979523;28;45620;-78
2022/10/22 03:46:42;;;;;;;6.10;5.80;;;19.80;75.70;;;;;;4982201;28;43962;-78
2022/10/22 03:49:10;;;;;;;5.77;5.47;;;19.80;75.60;;;;;;4981662;28;43419;-78
2022/10/22 03:51:38;;;;;;;6.67;6.27;;;19.80;75.50;;;;;;4982740;28;43486;-78
2022/10/22 03:54:06;;;;;;;6.23;5.83;;;19.80;75.60;;;;;;4982277;28;45677;-78
2022/10/22 03:56:34;;;;;;;6.97;6.47;;;19.80;75.90;;;;;;4989380;28;44697;-79
2022/10/22 03:59:02;;;;;;;6.33;6.03;;;19.80;76.00;;;;;;4976189;28;43487;-76
2022/10/22 04:01:31;;;;;;;7.00;6.50;;;19.90;75.70;;;;;;4981446;28;44001;-76
2022/10/22 04:03:59;;;;;;;6.20;5.83;;;20.00;75.20;;;;;;4983901;28;43943;-78
2022/10/22 04:06:29;;;;;;;6.43;6.03;;;20.20;74.60;;;;;;4984356;28;44200;-78
2022/10/22 04:08:57;;;;;;;6.50;6.10;;;20.30;74.10;;;;;;4981183;28;43506;-78
2022/10/22 04:11:25;;;;;;;6.03;5.73;;;20.40;74.00;;;;;;4981199;28;43447;-77
2022/10/22 04:13:53;;;;;;;6.23;5.83;;;20.30;74.00;;;;;;4980848;28;45388;-78
2022/10/22 04:16:21;;;;;;;5.73;5.43;;;20.20;74.10;;;;;;4994700;28;44780;-78
2022/10/22 04:18:55;;;;;;;5.93;5.57;;;20.20;74.40;;;;;;4984365;28;44153;-77
2022/10/22 04:21:23;;;;;;;6.17;5.77;;;20.00;74.90;;;;;;4981893;28;43496;-78
2022/10/22 04:23:52;;;;;;;5.80;5.50;;;20.00;75.00;;;;;;4985549;28;45061;-77
2022/10/22 04:26:20;;;;;;;5.80;5.50;;;20.00;74.90;;;;;;4980852;28;43587;-77
2022/10/22 04:28:48;;;;;;;5.40;5.10;;;20.00;75.00;;;;;;4980970;28;43541;-78
2022/10/22 04:31:17;;;;;;;5.53;5.23;;;20.00;75.10;;;;;;4984359;28;43479;-78
2022/10/22 04:33:45;;;;;;;5.70;5.40;;;19.90;75.50;;;;;;4983500;28;45759;-77
2022/10/22 04:36:15;;;;;;;5.37;5.17;;;19.90;75.60;;;;;;4982874;28;43482;-78
2022/10/22 04:38:44;;;;;;;5.53;5.13;;;20.00;75.30;;;;;;4975321;28;43564;-78
2022/10/22 04:41:13;;;;;;;5.30;5.00;;;20.00;75.00;;;;;;4986106;28;43543;-77
2022/10/22 04:43:41;;;;;;;5.30;5.00;;;20.10;74.90;;;;;;4979773;28;44407;-77
2022/10/22 04:46:10;;;;;;;5.40;5.10;;;20.00;75.00;;;;;;4983918;28;43447;-77
2022/10/22 04:48:38;;;;;;;5.70;5.40;;;20.00;75.20;;;;;;4985103;28;43741;-78
2022/10/22 04:51:06;;;;;;;5.57;5.27;;;20.00;75.10;;;;;;4978927;28;43763;-78
2022/10/22 04:53:35;;;;;;;4.77;4.57;;;20.00;75.00;;;;;;4982191;28;43942;-77
2022/10/22 04:56:07;;;;;;;4.90;4.70;;;20.00;75.00;;;;;;4983556;28;43539;-78
2022/10/22 04:58:35;;;;;;;4.97;4.57;;;19.90;75.10;;;;;;4983218;28;43934;-78
2022/10/22 05:01:10;;;;;;;5.03;4.83;;;19.90;75.70;;;;;;4978596;28;43509;-79
2022/10/22 05:03:38;;;;;;;4.63;4.43;;;19.90;75.50;;;;;;4992552;28;45284;-77
2022/10/22 05:06:06;;;;;;;4.70;4.50;;;20.10;75.30;;;;;;4982257;28;44362;-78
2022/10/22 05:08:35;;;;;;;4.80;4.60;;;20.20;74.60;;;;;;4978407;28;43457;-78
2022/10/22 05:11:11;;;;;;;4.50;4.30;;;20.30;74.20;;;;;;4974416;28;43752;-77
2022/10/22 05:13:39;;;;;;;4.70;4.40;;;20.30;74.70;;;;;;4978529;28;43852;-78
2022/10/22 05:16:09;;;;;;;4.77;4.57;;;20.30;74.10;;;;;;4985763;28;43443;-78
2022/10/22 05:18:37;;;;;;;4.73;4.53;;;20.20;75.00;;;;;;4980098;28;43336;-77
2022/10/22 05:21:07;;;;;;;4.90;4.70;;;20.10;74.50;;;;;;4981602;28;43521;-77
2022/10/22 05:23:37;;;;;;;4.87;4.67;;;20.00;75.00;;;;;;4983909;28;44042;-78
2022/10/22 05:26:05;;;;;;;4.20;4.10;;;20.00;75.00;;;;;;4978695;28;43483;-77
2022/10/22 05:28:33;;;;;;;4.47;4.27;;;20.00;75.00;;;;;;4980925;28;43479;-77
2022/10/22 05:31:04;;;;;;;4.37;4.20;;;20.00;75.20;;;;;;4984784;28;43497;-76
2022/10/22 05:33:32;;;;;;;4.47;4.27;;;19.90;75.20;;;;;;4982120;28;44140;-78
2022/10/22 05:36:00;;;;;;;4.47;4.20;;;19.90;75.70;;;;;;4978952;28;43618;-79
2022/10/22 05:38:28;;;;;;;4.70;4.40;;;19.90;75.60;;;;;;4982970;28;43388;-79
2022/10/22 05:41:01;;;;;;;4.00;3.90;;;19.90;75.40;;;;;;4979239;28;43434;-78
2022/10/22 05:43:29;;;;;;;4.00;3.80;;;19.80;75.40;;;;;;4984334;28;43603;-79
2022/10/22 05:46:00;;;;;;;4.50;4.30;;;19.80;75.50;;;;;;4984977;28;43509;-78
2022/10/22 05:48:28;;;;;;;4.33;4.13;;;19.80;75.90;;;;;;4983879;28;43484;-78
2022/10/22 05:50:57;;;;;;;4.63;4.33;;;19.80;75.80;;;;;;4986652;28;43733;-78
2022/10/22 05:53:24;;;;;;;3.90;3.80;;;20.00;75.40;;;;;;4986109;28;44286;-78
2022/10/22 05:55:52;;;;;;;4.17;3.97;;;20.10;75.00;;;;;;4981968;28;43636;-78
2022/10/22 05:58:22;;;;;;;3.90;3.80;;;20.10;74.80;;;;;;4979286;28;44796;-77
2022/10/22 06:00:50;;;;;;;4.13;4.00;;;20.00;74.80;;;;;;4983262;28;43483;-78
2022/10/22 06:03:18;;;;;;;3.80;3.70;;;20.10;75.00;;;;;;4981151;28;44235;-77
2022/10/22 06:05:46;;;;;;;3.70;3.60;;;20.10;74.90;;;;;;4986630;28;44053;-78
2022/10/22 06:08:14;;;;;;;4.07;3.87;;;20.10;74.80;;;;;;4985853;28;43455;-78
2022/10/22 06:10:46;;;;;;;3.30;3.20;;;20.00;74.80;;;;;;5000705;28;43519;-77
2022/10/22 06:13:13;;;;;;;3.50;3.40;;;20.00;75.00;;;;;;4986110;28;43602;-77
2022/10/22 06:15:43;;;;;;;4.07;3.97;;;19.90;75.50;;;;;;4985623;28;43443;-79
2022/10/22 06:18:11;;;;;;;3.23;3.13;;;19.90;75.40;;;;;;4998847;28;43523;-76
2022/10/22 06:20:39;;;;;;;3.40;3.30;;;20.00;75.10;;;;;;4987545;28;43498;-78
2022/10/22 06:23:07;;;;;;;3.87;3.67;;;20.10;74.70;;;;;;4991102;28;45371;-78
2022/10/22 06:25:35;;;;;;;3.30;3.20;;;20.20;74.60;;;;;;4982602;28;43402;-78
2022/10/22 06:28:03;;;;;;;3.57;3.47;;;20.10;74.40;;;;;;4978740;28;44641;-77
2022/10/22 06:30:31;;;;;;;3.20;3.10;;;20.10;74.90;;;;;;5004620;28;43663;-79
2022/10/22 06:33:00;;;;;;;3.40;3.30;;;20.10;74.80;;;;;;4985357;28;45388;-78
2022/10/22 06:35:28;;;;;;;3.53;3.43;;;20.10;74.80;;;;;;4986146;28;43570;-77
2022/10/22 06:37:56;;;;;;;2.93;2.83;;;20.00;74.70;;;;;;4985399;28;43464;-77
2022/10/22 06:40:24;;;;;;;3.70;3.60;;;20.00;74.90;;;;;;4985642;28;43588;-78
2022/10/22 06:42:52;;;;;;;3.43;3.33;;;19.90;75.40;;;;;;4983106;28;45918;-78
2022/10/22 06:45:20;;;;;;;3.43;3.33;;;19.90;75.40;;;;;;4985672;28;43494;-82
2022/10/22 06:47:48;;;;;;;3.30;3.20;;;19.90;75.40;;;;;;4992382;28;44050;-79
2022/10/22 06:50:17;;;;;;;3.43;3.33;;;19.80;75.90;;;;;;4992636;28;43443;-79
2022/10/22 06:52:45;;;;;;;3.27;3.17;;;19.80;75.30;;;;;;4979497;28;43604;-78
2022/10/22 06:55:13;;;;;;;3.00;2.90;;;19.80;75.80;;;;;;4986094;28;43538;-78
2022/10/22 06:57:43;;;;;;;3.33;3.23;;;19.80;76.60;;;;;;4984431;28;45238;-78
2022/10/22 07:00:12;;;;;;;3.10;3.00;;;19.90;75.50;;;;;;5001278;28;43543;-78
2022/10/22 07:02:40;;;;;;;3.27;3.17;;;20.10;75.10;;;;;;4990231;28;43896;-78
2022/10/22 07:05:09;;;;;;;2.77;2.70;;;20.20;74.50;;;;;;5003016;28;44681;-77
2022/10/22 07:07:39;;;;;;;2.97;2.87;;;20.30;74.20;;;;;;4990415;28;43469;-78
2022/10/22 07:10:08;;;;;;;2.80;2.70;;;20.30;74.10;;;;;;4987976;28;43388;-78
2022/10/22 07:12:36;;;;;;;2.60;2.60;;;20.20;74.10;;;;;;4988864;28;43802;-78
2022/10/22 07:15:05;;;;;;;2.90;2.80;;;20.10;75.00;;;;;;4992405;28;43809;-78
2022/10/22 07:17:33;;;;;;;3.00;2.90;;;20.00;74.50;;;;;;4986693;28;43364;-78
2022/10/22 07:20:01;;;;;;;2.80;2.80;;;20.00;75.20;;;;;;4984957;28;43492;-78
2022/10/22 07:22:29;;;;;;;2.80;2.70;;;20.00;75.10;;;;;;4984940;28;44029;-80
2022/10/22 07:24:58;;;;;;;2.80;2.70;;;19.90;75.00;;;;;;4989317;28;43380;-80
2022/10/22 07:27:30;;;;;;;2.70;2.67;;;19.90;75.10;;;;;;4994983;28;43350;-79
2022/10/22 07:29:59;;;;;;;2.90;2.80;;;19.90;75.30;;;;;;4994718;28;43563;-79
2022/10/22 07:32:27;;;;;;;2.80;2.70;;;19.80;75.60;;;;;;4999694;28;45712;-77
2022/10/22 07:34:55;;;;;;;2.63;2.53;;;19.80;75.60;;;;;;4980324;28;43571;-77
2022/10/22 07:37:23;;;;;;;2.40;2.40;;;19.80;75.40;;;;;;4981510;28;43467;-78
2022/10/22 07:39:51;;;;;;;2.70;2.60;;;19.80;75.40;;;;;;4983776;28;43498;-78
2022/10/22 07:42:21;;;;;;;2.90;2.80;;;19.80;75.50;;;;;;4976772;28;43635;-78
2022/10/22 07:44:49;;;;;;;2.40;2.40;;;19.80;75.80;;;;;;4978846;28;44432;-78
2022/10/22 07:47:17;;;;;;;2.10;2.10;;;19.80;75.90;;;;;;4986175;28;43405;-77
2022/10/22 07:49:45;;;;;;;2.83;2.63;;;19.90;76.40;;;;;;4975869;28;43516;-78
2022/10/22 07:52:13;;;;;;;2.60;2.50;;;20.00;75.10;;;;;;4980246;28;45754;-78
2022/10/22 07:54:40;;;;;;;2.87;2.73;;;20.20;74.60;;;;;;4981966;28;43510;-78
2022/10/22 07:57:08;;;;;;;2.70;2.60;;;20.20;74.20;;;;;;4984471;28;43387;-78
2022/10/22 07:59:38;;;;;;;2.77;2.57;;;20.20;74.10;;;;;;5001169;22;43758;-73
2022/10/22 08:02:06;;;;;;;3.00;2.80;;;20.20;74.20;;;;;;4978891;28;43592;-70
2022/10/22 08:04:34;;;;;;;3.30;3.10;;;20.10;74.30;;;;;;4975484;28;44373;-71
2022/10/22 08:07:01;;;;;;;4.13;3.47;;;20.00;74.60;;;;;;4984672;28;43439;-72
2022/10/22 08:09:29;;;;;;;3.50;3.30;;;19.90;75.10;;;;;;4981109;28;43510;-72
2022/10/22 08:11:57;;;;;;;4.30;3.50;;;19.90;75.10;;;;;;4977684;28;43730;-71
2022/10/22 08:14:25;;;;;;;3.23;2.93;;;19.90;75.10;;;;;;4972735;28;43423;-72
2022/10/22 08:16:54;;;;;;;3.20;3.00;;;19.80;75.10;;;;;;4985427;28;44114;-70
2022/10/22 08:19:22;;;;;;;3.83;3.50;;;19.80;75.30;;;;;;4974760;28;43523;-70
2022/10/22 08:21:50;;;;;;;5.07;3.83;;;19.80;75.80;;;;;;4981286;28;43609;-71
2022/10/22 08:24:18;;;;;;;3.43;3.20;;;19.80;75.70;;;;;;4980786;28;43488;-71
2022/10/22 08:26:46;;;;;;;4.77;3.73;;;19.80;75.60;;;;;;4983678;28;43421;-72
2022/10/22 08:29:14;;;;;;;4.47;3.43;;;19.80;75.50;;;;;;4984417;28;43402;-71
2022/10/22 08:31:42;;;;;;;6.87;4.60;;;19.80;75.60;;;;;;4987304;28;45719;-72
2022/10/22 08:34:11;;;;;;;5.87;4.60;;;19.70;76.00;;;;;;4980027;28;43516;-71
2022/10/22 08:36:39;;;;;;;5.23;4.13;;;19.80;76.00;;;;;;4975750;28;43501;-71
2022/10/22 08:39:07;;;;;;;6.83;4.37;;;19.90;75.60;;;;;;4974842;28;43442;-70
2022/10/22 08:41:39;;;;;;;4.63;4.07;;;20.00;75.10;;;;;;4976211;28;43674;-72
2022/10/22 08:44:23;;;;;;;5.63;4.23;;;20.20;74.50;;;;;;4988678;28;43420;-72
2022/10/22 08:47:13;;;;;;;6.80;4.17;;;20.30;74.20;;;;;;4984648;28;43458;-71
2022/10/22 08:49:48;;;;;;;6.13;4.30;;;20.20;73.90;;;;;;4979597;28;43396;-71
2022/10/22 08:52:16;;;;;;;5.77;4.00;;;20.20;74.20;;;;;;4981031;28;43922;-70
2022/10/22 08:54:49;;;;;;;6.13;4.00;;;20.10;74.40;;;;;;4981536;28;43457;-71
2022/10/22 08:57:23;;;;;;;4.23;3.70;;;20.00;75.00;;;;;;4971048;28;43781;-70
2022/10/22 08:59:54;;;;;;;4.87;3.73;;;20.00;75.20;;;;;;4988415;28;44052;-70
2022/10/22 09:02:30;;;;;;;4.43;3.50;;;19.90;75.10;;;;;;4979093;28;44009;-72
2022/10/22 09:05:03;;;;;;;3.87;3.57;;;19.90;75.10;;;;;;4973091;28;43531;-70
2022/10/22 09:07:42;;;;;;;4.20;3.80;;;19.90;75.20;;;;;;4986150;28;43418;-72
2022/10/22 09:10:11;;;;;;;4.30;3.90;;;19.80;75.70;;;;;;4983472;28;43365;-71
2022/10/22 09:12:39;;;;;;;5.63;3.77;;;19.80;75.60;;;;;;4971569;28;43628;-72
2022/10/22 09:15:12;;;;;;;3.70;3.40;;;19.80;75.50;;;;;;4975779;28;44030;-71
2022/10/22 09:17:45;;;;;;;3.90;3.60;;;19.80;75.50;;;;;;4976573;28;43433;-70
2022/10/22 09:20:16;;;;;;;4.77;3.97;;;19.80;75.50;;;;;;4982156;28;43394;-71
2022/10/22 09:22:46;;;;;;;5.03;3.63;;;19.70;75.70;;;;;;4987484;28;45415;-72
2022/10/22 09:25:19;;;;;;;3.87;3.40;;;19.70;76.10;;;;;;4981688;28;43460;-71
2022/10/22 09:27:47;;;;;;;5.47;4.00;;;19.80;75.90;;;;;;4984465;28;43396;-70
2022/10/22 09:30:16;;;;;;;4.30;4.00;;;19.90;75.40;;;;;;4973700;28;43432;-71
2022/10/22 09:32:44;;;;;;;4.10;3.80;;;20.10;74.80;;;;;;4988728;28;44073;-70
2022/10/22 09:35:12;;;;;;;4.13;3.40;;;20.20;74.30;;;;;;4985722;28;43825;-71
2022/10/22 09:37:49;;;;;;;4.10;3.73;;;20.30;74.20;;;;;;4981287;28;43469;-70
2022/10/22 09:40:17;;;;;;;3.60;3.30;;;20.20;74.10;;;;;;4981201;28;43976;-71
2022/10/22 09:42:45;;;;;;;3.67;3.37;;;20.10;74.20;;;;;;4976263;28;43561;-71
2022/10/22 09:45:17;;;;;;;3.77;3.47;;;20.10;74.60;;;;;;4981413;28;43528;-72
2022/10/22 09:47:45;;;;;;;3.87;3.50;;;20.00;75.10;;;;;;4980579;28;43495;-70
2022/10/22 09:50:35;;;;;;;3.37;3.07;;;20.00;75.30;;;;;;4985120;28;43496;-71
2022/10/22 09:53:11;;;;;;;3.53;3.23;;;19.90;75.10;;;;;;4976465;28;45553;-72
2022/10/22 09:55:39;;;;;;;2.80;2.70;;;19.90;75.10;;;;;;4979926;28;43460;-71
2022/10/22 09:58:09;;;;;;;3.80;3.50;;;19.80;75.20;;;;;;4985593;28;43587;-71
2022/10/22 10:00:45;;;;;;;3.50;3.20;;;19.80;75.70;;;;;;4979644;28;43480;-72
2022/10/22 10:03:16;;;;;;;3.77;3.47;;;19.80;75.80;;;;;;4985248;28;46296;-71
2022/10/22 10:05:46;;;;;;;2.90;2.80;;;19.80;75.60;;;;;;4974399;28;44135;-71
2022/10/22 10:08:16;;;;;;;3.03;2.83;;;19.80;75.60;;;;;;4980504;28;43501;-72
2022/10/22 10:10:47;;;;;;;3.83;3.53;;;19.80;75.60;;;;;;4975094;28;43959;-71
2022/10/22 10:13:22;;;;;;;3.23;3.03;;;19.70;75.90;;;;;;4982996;28;43992;-71
2022/10/22 10:15:53;;;;;;;3.60;3.30;;;19.70;76.10;;;;;;4972530;28;43592;-71
2022/10/22 10:18:25;;;;;;;3.50;3.20;;;19.80;75.80;;;;;;4972818;28;43543;-71
2022/10/22 10:20:56;;;;;;;3.07;2.87;;;20.00;75.40;;;;;;4977205;28;43455;-70
2022/10/22 10:23:27;;;;;;;3.03;2.90;;;20.10;74.60;;;;;;4978638;28;43930;-71
2022/10/22 10:25:57;;;;;;;3.40;3.10;;;20.20;74.30;;;;;;4977819;28;44042;-71
2022/10/22 10:28:36;;;;;;;3.10;2.90;;;20.20;74.20;;;;;;4977001;28;43950;-70
2022/10/22 10:31:10;;;;;;;3.30;3.10;;;20.20;74.10;;;;;;4985718;28;43881;-72
2022/10/22 10:33:42;;;;;;;3.10;2.80;;;20.10;74.40;;;;;;4985466;28;43926;-71
2022/10/22 10:36:12;;;;;;;3.07;2.87;;;20.00;74.70;;;;;;4985045;28;43587;-72
2022/10/22 10:38:48;;;;;;;3.07;2.87;;;20.00;75.30;;;;;;4984329;28;43507;-71
2022/10/22 10:41:23;;;;;;;2.70;2.57;;;19.90;75.20;;;;;;4980339;28;43696;-71
2022/10/22 10:44:13;;;;;;;3.10;2.80;;;19.90;75.10;;;;;;4977887;28;43926;-71
2022/10/22 10:46:45;;;;;;;2.97;2.77;;;19.80;75.10;;;;;;4984858;28;43456;-71
2022/10/22 10:49:16;;;;;;;2.90;2.70;;;19.80;75.30;;;;;;4973253;28;43544;-72
2022/10/22 10:51:48;;;;;;;3.10;2.90;;;19.80;75.70;;;;;;4985982;28;43543;-71
2022/10/22 10:54:27;;;;;;;2.60;2.47;;;19.80;75.70;;;;;;4974466;28;43958;-71
2022/10/22 10:56:56;;;;;;;2.60;2.50;;;19.80;75.50;;;;;;4986757;28;44963;-72
2022/10/22 10:59:32;;;;;;;2.80;2.70;;;19.80;76.30;;;;;;4975022;28;44745;-71
2022/10/22 11:02:16;;;;;;;2.80;2.60;;;19.70;75.60;;;;;;4982755;28;43887;-72
2022/10/22 11:05:07;;;;;;;2.80;2.70;;;19.70;76.20;;;;;;4977432;28;44097;-72
2022/10/22 11:07:38;;;;;;;2.67;2.57;;;19.80;76.00;;;;;;4985829;28;43918;-71
2022/10/22 11:10:10;;;;;;;2.70;2.50;;;19.90;75.50;;;;;;4986784;28;43425;-72
2022/10/22 11:12:39;;;;;;;3.13;2.93;;;20.10;74.60;;;;;;4972639;28;43753;-71
2022/10/22 11:15:12;;;;;;;2.47;2.37;;;20.20;74.10;;;;;;4987857;28;43640;-70
2022/10/22 11:17:41;;;;;;;4.10;2.70;;;20.20;74.10;;;;;;4979459;28;43552;-70
2022/10/22 11:20:14;;;;;;;2.37;2.27;;;20.20;74.20;;;;;;4984634;28;43427;-71
2022/10/22 11:22:44;;;;;;;2.60;2.40;;;20.10;74.50;;;;;;4977324;28;43536;-71
2022/10/22 11:25:34;;;;;;;2.70;2.50;;;20.00;74.70;;;;;;4983496;28;43657;-72
2022/10/22 11:28:04;;;;;;;2.73;2.60;;;19.90;75.20;;;;;;4982135;28;43418;-70
2022/10/22 11:30:38;;;;;;;2.60;2.50;;;19.90;75.20;;;;;;4977417;28;43429;-71
2022/10/22 11:33:07;;;;;;;2.50;2.40;;;19.90;75.20;;;;;;4985426;28;43465;-70
2022/10/22 11:35:36;;;;;;;2.30;2.20;;;19.80;75.20;;;;;;4984835;28;45709;-71
2022/10/22 11:38:05;;;;;;;2.30;2.20;;;19.80;75.50;;;;;;4980276;28;44283;-72
2022/10/22 11:40:36;;;;;;;2.40;2.30;;;19.80;75.90;;;;;;4986868;28;43461;-71
2022/10/22 11:43:04;;;;;;;2.30;2.20;;;19.80;75.80;;;;;;4984435;28;44034;-72
2022/10/22 11:45:34;;;;;;;2.40;2.30;;;19.80;75.60;;;;;;4984273;28;44084;-70
2022/10/22 11:48:07;;;;;;;2.30;2.20;;;19.80;75.60;;;;;;4972252;28;44286;-72
2022/10/22 11:50:46;;;;;;;2.63;2.43;;;19.70;75.60;;;;;;4974949;28;44292;-71
2022/10/22 11:53:19;;;;;;;2.83;2.37;;;19.70;75.50;;;;;;4976799;28;43430;-72
2022/10/22 11:55:50;;;;;;;2.47;2.27;;;19.80;75.00;;;;;;4978416;28;43936;-72
2022/10/22 11:58:37;;;;;;;4.20;2.43;;;19.80;74.30;;;;;;4978458;28;43515;-72
2022/10/22 12:01:40;;;;;;;5.60;2.47;;;20.00;73.90;;;;;;4980151;28;43440;-72
2022/10/22 12:04:22;;;;;;;3.43;2.50;;;20.10;73.30;;;;;;4957075;28;43511;-71
2022/10/22 12:07:00;;;;;;;2.67;2.47;;;20.10;73.20;;;;;;4982470;28;43960;-72
2022/10/22 12:09:31;;;;;;;2.00;1.90;;;20.00;73.40;;;;;;4980973;28;45012;-71
2022/10/22 12:12:09;;;;;;;2.30;2.20;;;20.00;73.80;;;;;;4980756;28;43456;-70
2022/10/22 12:14:40;;;;;;;2.43;2.23;;;20.00;74.10;;;;;;4985025;28;43639;-73
2022/10/22 12:17:09;;;;;;;2.37;2.20;;;19.80;74.00;;;;;;4986202;28;43592;-72
2022/10/22 12:19:38;;;;;;;2.30;2.00;;;19.90;74.30;;;;;;4984271;28;43526;-70
2022/10/22 12:22:13;;;;;;;2.13;2.00;;;19.80;74.30;;;;;;4983720;28;43488;-71
2022/10/22 12:24:43;;;;;;;2.30;2.20;;;19.80;74.80;;;;;;4981272;28;44402;-71
2022/10/22 12:27:19;;;;;;;2.80;2.60;;;19.80;74.80;;;;;;4981824;28;45599;-71
2022/10/22 12:29:53;;;;;;;2.33;2.13;;;19.70;75.50;;;;;;4981157;28;44154;-71
2022/10/22 12:32:21;;;;;;;2.80;2.00;;;19.70;74.90;;;;;;4982211;28;43770;-72
2022/10/22 12:34:49;;;;;;;1.83;1.80;;;19.70;74.80;;;;;;4985298;28;44041;-71
2022/10/22 12:37:18;;;;;;;2.10;1.80;;;19.70;74.90;;;;;;4980728;28;44175;-71
2022/10/22 12:39:46;;;;;;;2.30;2.20;;;19.70;75.00;;;;;;4983003;28;44544;-72
2022/10/22 12:42:15;;;;;;;4.13;2.00;;;19.60;75.10;;;;;;4986344;28;43528;-71
2022/10/22 12:44:44;;;;;;;3.27;2.37;;;19.70;75.10;;;;;;4983061;28;44094;-72
2022/10/22 12:47:15;;;;;;;3.17;2.87;;;19.80;74.80;;;;;;4981694;28;43890;-70
2022/10/22 12:49:44;;;;;;;1.93;1.87;;;19.90;75.10;;;;;;4980517;28;43473;-70
2022/10/22 12:52:14;;;;;;;2.10;1.90;;;20.10;74.00;;;;;;4976260;28;44601;-71
2022/10/22 12:54:41;;;;;;;2.20;2.10;;;20.10;73.70;;;;;;4975922;28;44148;-71
2022/10/22 12:57:11;;;;;;;2.60;2.23;;;20.10;73.80;;;;;;4978074;28;43867;-71
2022/10/22 12:59:39;;;;;;;3.43;1.90;;;20.00;74.00;;;;;;4979423;28;43483;-72